NFSM7: N Fork Spring River nr Purcell, MO

                                SHEF ID:       NFSM7     N Fork Spring River nr Purcell, MO
STATION TYPE:

STAGE RIV-FLOW
ft cfs
Ccp-Rev Ccp-Rev
(America/Chicago)
05/02 00:00 4.43 338
05/02 01:00 4.41 333
05/02 02:00 4.37 322
05/02 03:00 4.36 319
05/02 04:00 4.33 311
05/02 05:00 4.31 305
05/02 06:00 4.30 303
05/02 07:00 4.28 298
05/02 08:00 4.26 293
05/02 09:00 4.24 288
05/02 10:00 4.23 285
05/02 11:00 4.22 283
05/02 12:00 4.21 280
05/02 13:00 4.20 278
05/02 14:00 4.22 283
05/02 15:00 4.19 275
05/02 16:00 4.18 273
05/02 17:00 4.15 266
05/02 18:00 4.14 263
05/02 19:00 4.12 258
05/02 20:00 4.12 258
05/02 21:00 4.10 254
05/02 22:00 4.09 251
05/02 23:00 ---- ----
Data processed at Sun 03May2026 04:45 GMT

NOTICE: If you are parsing this page

Please convert to using our Data API. Starting early 2026 we will be migrating to: https://water.usace.army.mil with modern pages rendered in JavaScript. When this migration completes you will no longer be able to scrape this page! CWMSDataAPI (CDA)

Timeseries IDs (TSIDs)

TSIDs used from left to right in the data table
PURS.Stage.Inst.1Hour.0.Ccp-Rev
PURS.Flow.Inst.1Hour.0.Ccp-Rev

                            

All information presented herein is the property of the government of the United States of America and may be revised or deleted at any time without prior notice. Dissemination of this information without the expressed written consent of the Public Affairs Office, Tulsa District U.S. Army Corps of Engineers is strictly prohibited. These data are gathered electronically and, as presented, have NOT undergone any form of quality control. These data are NOT guaranteed to be valid or correct.